Time;durP1;ratioP1;P1;durP2;ratioP2;P2;SDS_P1;SDS_P2;PMS_P1;PMS_P2;Temp;Humidity;BMP_temperature;BMP_pressure;BME280_temperature;BME280_humidity;BME280_pressure;Samples;Min_cycle;Max_cycle;Signal;HPM_P1;HPM_P2
2020/12/12 00:01:22;;;;;;;20.50;12.40;;;;;;;;;;5049637;28;20257;-78
2020/12/12 00:03:50;;;;;;;18.40;12.27;;;;;;;;;;5049043;28;20234;-78
2020/12/12 00:06:21;;;;;;;20.23;12.50;;;;;;;;;;5018329;28;20235;-78
2020/12/12 00:08:48;;;;;;;20.30;11.77;;;;;;;;;;5021086;28;20238;-80
2020/12/12 00:11:18;;;;;;;20.73;12.77;;;;;;;;;;5030612;28;20250;-79
2020/12/12 00:13:45;;;;;;;24.70;13.67;;;;;;;;;;5049813;28;20603;-79
2020/12/12 00:16:16;;;;;;;21.80;12.90;;;;;;;;;;5035825;28;20238;-79
2020/12/12 00:18:44;;;;;;;17.57;11.10;;;;;;;;;;5035374;28;20227;-79
2020/12/12 00:21:13;;;;;;;20.63;12.07;;;;;;;;;;5046637;28;20615;-79
2020/12/12 00:23:41;;;;;;;19.70;12.30;;;;;;;;;;5034651;28;20230;-80
2020/12/12 00:26:09;;;;;;;23.23;14.13;;;;;;;;;;5037238;28;20222;-78
2020/12/12 00:28:36;;;;;;;23.37;14.43;;;;;;;;;;5033891;28;20224;-79
2020/12/12 00:31:04;;;;;;;18.53;11.60;;;;;;;;;;5029922;28;20235;-79
2020/12/12 00:33:33;;;;;;;21.67;12.13;;;;;;;;;;5033036;28;20234;-79
2020/12/12 00:36:01;;;;;;;19.13;11.97;;;;;;;;;;5030868;28;20712;-79
2020/12/12 00:38:28;;;;;;;18.60;12.10;;;;;;;;;;5051236;28;20289;-79
2020/12/12 00:40:57;;;;;;;17.37;11.33;;;;;;;;;;5012923;28;20231;-79
2020/12/12 00:43:25;;;;;;;19.27;11.97;;;;;;;;;;5040545;28;20238;-79
2020/12/12 00:45:53;;;;;;;17.77;11.27;;;;;;;;;;5029670;28;20240;-79
2020/12/12 00:48:21;;;;;;;16.60;10.57;;;;;;;;;;5004819;28;20226;-79
2020/12/12 00:50:50;;;;;;;17.63;10.93;;;;;;;;;;5002456;28;20231;-80
2020/12/12 00:53:18;;;;;;;17.63;10.80;;;;;;;;;;5005988;28;20223;-79
2020/12/12 00:55:45;;;;;;;19.50;11.77;;;;;;;;;;5015121;28;20228;-81
2020/12/12 00:58:13;;;;;;;18.83;10.93;;;;;;;;;;5026130;28;20231;-79
2020/12/12 01:00:41;;;;;;;15.43;10.37;;;;;;;;;;5048829;28;20223;-79
2020/12/12 01:03:09;;;;;;;19.00;10.87;;;;;;;;;;5044072;28;20222;-78
2020/12/12 01:05:36;;;;;;;15.80;9.70;;;;;;;;;;5013113;28;20231;-79
2020/12/12 01:08:05;;;;;;;17.13;10.87;;;;;;;;;;5028432;28;20238;-77
2020/12/12 01:10:33;;;;;;;15.40;10.37;;;;;;;;;;5051001;28;20219;-78
2020/12/12 01:13:01;;;;;;;17.27;9.23;;;;;;;;;;5019082;28;20219;-78
2020/12/12 01:15:29;;;;;;;14.10;8.60;;;;;;;;;;5053590;28;20238;-79
2020/12/12 01:17:57;;;;;;;13.37;8.93;;;;;;;;;;5056530;28;20384;-78
2020/12/12 01:20:24;;;;;;;14.10;8.50;;;;;;;;;;5034574;28;20234;-79
2020/12/12 01:22:52;;;;;;;12.73;6.87;;;;;;;;;;5052485;28;20227;-77
2020/12/12 01:25:21;;;;;;;11.83;7.20;;;;;;;;;;5049105;28;20250;-79
2020/12/12 01:27:50;;;;;;;15.00;7.67;;;;;;;;;;5029558;28;20226;-77
2020/12/12 01:30:17;;;;;;;11.23;6.40;;;;;;;;;;5047621;28;20585;-78
2020/12/12 01:32:45;;;;;;;9.63;5.37;;;;;;;;;;5048806;28;20238;-77
2020/12/12 01:35:13;;;;;;;12.27;6.10;;;;;;;;;;5033053;28;20227;-78
2020/12/12 01:37:43;;;;;;;12.07;7.23;;;;;;;;;;5027749;28;20224;-78
2020/12/12 01:40:11;;;;;;;8.57;4.97;;;;;;;;;;5032401;28;20246;-78
2020/12/12 01:42:40;;;;;;;7.60;5.63;;;;;;;;;;5048361;28;20247;-77
2020/12/12 01:45:08;;;;;;;8.33;5.40;;;;;;;;;;5057816;28;20234;-78
2020/12/12 01:47:36;;;;;;;9.47;5.57;;;;;;;;;;5052700;28;20225;-78
2020/12/12 01:50:04;;;;;;;7.77;5.70;;;;;;;;;;5060430;28;20231;-79
2020/12/12 01:52:32;;;;;;;8.00;5.50;;;;;;;;;;5032507;28;20242;-79
2020/12/12 01:55:00;;;;;;;7.87;5.43;;;;;;;;;;5017725;28;20220;-78
2020/12/12 01:57:28;;;;;;;9.13;5.53;;;;;;;;;;5023594;28;20227;-78
2020/12/12 01:59:57;;;;;;;7.23;5.20;;;;;;;;;;5036930;28;20226;-78
2020/12/12 02:02:24;;;;;;;9.23;5.33;;;;;;;;;;5018335;28;20227;-79
2020/12/12 02:04:53;;;;;;;7.33;5.10;;;;;;;;;;5050254;28;20216;-79
2020/12/12 02:07:22;;;;;;;6.87;4.83;;;;;;;;;;5047014;28;20228;-78
2020/12/12 02:09:50;;;;;;;7.80;4.97;;;;;;;;;;5046630;28;20227;-78
2020/12/12 02:12:18;;;;;;;6.93;4.97;;;;;;;;;;5034085;28;20612;-79
2020/12/12 02:14:46;;;;;;;9.43;5.93;;;;;;;;;;5050362;28;20219;-78
2020/12/12 02:17:14;;;;;;;8.97;5.37;;;;;;;;;;5038769;28;20239;-78
2020/12/12 02:19:42;;;;;;;8.80;5.73;;;;;;;;;;5057641;28;20234;-79
2020/12/12 02:22:11;;;;;;;10.90;6.27;;;;;;;;;;5052239;28;20231;-78
2020/12/12 02:24:38;;;;;;;9.80;5.97;;;;;;;;;;5060423;28;20303;-78
2020/12/12 02:27:07;;;;;;;11.27;6.60;;;;;;;;;;5063517;28;20223;-77
2020/12/12 02:29:45;;;;;;;11.17;6.50;;;;;;;;;;5029693;28;20438;-78
2020/12/12 02:32:13;;;;;;;9.93;6.17;;;;;;;;;;5012721;28;20281;-78
2020/12/12 02:34:41;;;;;;;10.43;6.17;;;;;;;;;;5034321;28;20423;-78
2020/12/12 02:37:09;;;;;;;11.43;6.73;;;;;;;;;;5057999;28;20227;-78
2020/12/12 02:39:37;;;;;;;10.27;7.13;;;;;;;;;;5038706;28;20236;-77
2020/12/12 02:42:05;;;;;;;13.57;7.30;;;;;;;;;;5023227;28;20231;-78
2020/12/12 02:44:32;;;;;;;12.07;7.33;;;;;;;;;;5040553;28;20230;-77
2020/12/12 02:47:00;;;;;;;15.73;8.13;;;;;;;;;;5050343;28;20250;-78
2020/12/12 02:49:28;;;;;;;16.53;7.53;;;;;;;;;;5039623;28;20232;-78
2020/12/12 02:51:55;;;;;;;11.20;6.53;;;;;;;;;;5028619;28;20231;-78
2020/12/12 02:54:23;;;;;;;13.90;7.23;;;;;;;;;;5027931;28;20605;-78
2020/12/12 02:56:51;;;;;;;12.37;7.00;;;;;;;;;;5040098;28;20235;-78
2020/12/12 02:59:19;;;;;;;16.47;7.60;;;;;;;;;;5031394;28;20231;-78
2020/12/12 03:01:46;;;;;;;13.83;7.47;;;;;;;;;;5040061;28;20237;-78
2020/12/12 03:04:14;;;;;;;16.00;7.53;;;;;;;;;;5045386;28;20729;-78
2020/12/12 03:06:44;;;;;;;12.63;6.97;;;;;;;;;;5060564;28;20246;-77
2020/12/12 03:09:12;;;;;;;13.33;7.10;;;;;;;;;;5024071;28;20234;-78
2020/12/12 03:11:40;;;;;;;13.53;7.13;;;;;;;;;;5026978;28;20242;-78
2020/12/12 03:14:08;;;;;;;11.87;6.37;;;;;;;;;;5056319;28;20223;-79
2020/12/12 03:16:35;;;;;;;12.70;6.33;;;;;;;;;;5047485;28;20226;-78
2020/12/12 03:19:04;;;;;;;13.03;6.80;;;;;;;;;;5028281;28;20235;-77
2020/12/12 03:21:32;;;;;;;13.20;7.10;;;;;;;;;;5042012;28;20696;-79
2020/12/12 03:23:59;;;;;;;12.77;7.20;;;;;;;;;;5031961;28;20230;-79
2020/12/12 03:26:27;;;;;;;14.93;7.00;;;;;;;;;;5040856;28;20239;-79
2020/12/12 03:28:54;;;;;;;15.17;6.70;;;;;;;;;;5025182;28;20246;-79
2020/12/12 03:31:23;;;;;;;12.13;7.10;;;;;;;;;;5048215;28;20246;-78
2020/12/12 03:33:50;;;;;;;16.13;7.37;;;;;;;;;;5028234;28;20246;-79
2020/12/12 03:36:18;;;;;;;12.97;7.00;;;;;;;;;;5045722;28;20215;-79
2020/12/12 03:38:46;;;;;;;13.07;8.47;;;;;;;;;;5071918;28;20215;-79
2020/12/12 03:41:13;;;;;;;18.97;7.60;;;;;;;;;;5052603;28;20216;-78
2020/12/12 03:43:41;;;;;;;13.77;7.40;;;;;;;;;;5066741;28;21035;-80
2020/12/12 03:46:09;;;;;;;11.47;7.50;;;;;;;;;;5084066;28;20222;-79
2020/12/12 03:48:37;;;;;;;14.87;6.87;;;;;;;;;;5052906;28;20231;-78
2020/12/12 03:51:05;;;;;;;12.33;6.93;;;;;;;;;;5048611;28;20231;-78
2020/12/12 03:53:32;;;;;;;15.53;7.53;;;;;;;;;;5042445;28;20230;-79
2020/12/12 03:56:00;;;;;;;14.80;7.90;;;;;;;;;;5051922;28;20212;-79
2020/12/12 03:58:27;;;;;;;11.43;7.13;;;;;;;;;;5060978;28;20219;-78
2020/12/12 04:00:55;;;;;;;13.33;7.40;;;;;;;;;;5082980;28;20219;-78
2020/12/12 04:03:23;;;;;;;14.93;7.63;;;;;;;;;;5044682;28;20214;-78
2020/12/12 04:05:52;;;;;;;11.83;7.23;;;;;;;;;;5031867;28;20227;-78
2020/12/12 04:08:19;;;;;;;16.67;7.37;;;;;;;;;;5023065;28;20364;-78
2020/12/12 04:10:50;;;;;;;13.03;6.90;;;;;;;;;;5029966;28;20238;-77
2020/12/12 04:13:18;;;;;;;18.03;7.40;;;;;;;;;;5047650;28;20223;-78
2020/12/12 04:15:45;;;;;;;14.60;6.90;;;;;;;;;;5020102;28;20227;-79
2020/12/12 04:18:13;;;;;;;11.93;7.03;;;;;;;;;;5044001;28;20235;-79
2020/12/12 04:20:41;;;;;;;12.13;7.17;;;;;;;;;;5044790;28;20239;-78
2020/12/12 04:23:09;;;;;;;10.53;6.90;;;;;;;;;;5040759;28;20223;-78
2020/12/12 04:25:37;;;;;;;12.70;6.30;;;;;;;;;;5033031;28;20223;-78
2020/12/12 04:28:05;;;;;;;10.40;6.37;;;;;;;;;;5044490;28;20223;-78
2020/12/12 04:30:32;;;;;;;14.83;7.47;;;;;;;;;;5042796;28;20232;-78
2020/12/12 04:33:00;;;;;;;10.40;6.20;;;;;;;;;;5029927;28;20231;-78
2020/12/12 04:35:28;;;;;;;12.60;6.93;;;;;;;;;;5059317;28;20234;-78
2020/12/12 04:37:55;;;;;;;11.43;6.33;;;;;;;;;;5021308;28;20223;-77
2020/12/12 04:40:24;;;;;;;10.83;6.93;;;;;;;;;;5024785;28;20239;-78
2020/12/12 04:42:51;;;;;;;12.27;6.47;;;;;;;;;;5040475;28;20224;-78
2020/12/12 04:45:21;;;;;;;12.50;6.23;;;;;;;;;;5015024;28;20256;-78
2020/12/12 04:47:49;;;;;;;11.60;6.40;;;;;;;;;;5018610;28;20239;-78
2020/12/12 04:50:18;;;;;;;10.83;6.77;;;;;;;;;;5046937;28;20262;-79
2020/12/12 04:52:45;;;;;;;9.37;6.17;;;;;;;;;;5040974;28;20242;-78
2020/12/12 04:55:13;;;;;;;10.43;6.53;;;;;;;;;;5063204;28;20246;-77
2020/12/12 04:57:42;;;;;;;11.17;6.60;;;;;;;;;;5018204;28;20760;-78
2020/12/12 05:00:11;;;;;;;10.10;6.50;;;;;;;;;;5050746;28;20716;-77
2020/12/12 05:02:38;;;;;;;12.87;6.80;;;;;;;;;;5044904;28;20242;-78
2020/12/12 05:05:07;;;;;;;12.70;6.17;;;;;;;;;;5044227;28;20230;-79
2020/12/12 05:07:35;;;;;;;10.33;6.43;;;;;;;;;;5042483;28;20605;-78
2020/12/12 05:10:03;;;;;;;10.00;6.20;;;;;;;;;;5058998;28;20238;-79
2020/12/12 05:12:32;;;;;;;10.60;6.37;;;;;;;;;;5027342;28;20227;-79
2020/12/12 05:15:01;;;;;;;9.93;6.37;;;;;;;;;;5030083;28;20220;-79
2020/12/12 05:17:28;;;;;;;11.03;6.20;;;;;;;;;;5052282;28;20219;-79
2020/12/12 05:19:59;;;;;;;10.87;5.80;;;;;;;;;;5053512;28;20230;-79
2020/12/12 05:22:29;;;;;;;10.30;6.47;;;;;;;;;;5063087;28;20234;-79
2020/12/12 05:24:56;;;;;;;13.40;6.57;;;;;;;;;;5044863;28;20734;-79
2020/12/12 05:27:24;;;;;;;12.30;6.67;;;;;;;;;;5048997;28;20269;-79
2020/12/12 05:29:51;;;;;;;9.90;6.03;;;;;;;;;;5050878;28;20219;-79
2020/12/12 05:32:20;;;;;;;12.40;6.27;;;;;;;;;;5045393;28;20223;-79
2020/12/12 05:34:47;;;;;;;12.63;6.90;;;;;;;;;;5047782;28;20231;-79
2020/12/12 05:37:18;;;;;;;12.53;6.93;;;;;;;;;;5027114;28;20246;-79
2020/12/12 05:39:48;;;;;;;12.57;6.97;;;;;;;;;;5047980;28;20227;-79
2020/12/12 05:42:20;;;;;;;10.30;6.63;;;;;;;;;;5048875;28;20234;-78
2020/12/12 05:44:48;;;;;;;12.77;6.70;;;;;;;;;;5017274;28;20242;-78
2020/12/12 05:47:16;;;;;;;11.80;6.83;;;;;;;;;;5026934;28;20236;-78
2020/12/12 05:49:47;;;;;;;10.67;6.87;;;;;;;;;;5032901;28;20223;-79
2020/12/12 05:52:15;;;;;;;12.20;7.43;;;;;;;;;;5031988;28;20607;-78
2020/12/12 05:54:43;;;;;;;12.77;7.10;;;;;;;;;;5051516;28;20235;-78
2020/12/12 05:57:11;;;;;;;11.40;7.13;;;;;;;;;;5044384;28;20226;-77
2020/12/12 05:59:39;;;;;;;19.10;8.10;;;;;;;;;;5024309;28;20224;-78
2020/12/12 06:02:08;;;;;;;12.93;7.87;;;;;;;;;;5036107;28;20227;-78
2020/12/12 06:04:39;;;;;;;11.70;7.37;;;;;;;;;;5033809;28;20223;-78
2020/12/12 06:07:28;;;;;;;13.50;7.90;;;;;;;;;;5060653;28;20611;-79
2020/12/12 06:09:58;;;;;;;11.73;7.33;;;;;;;;;;5008171;28;20234;-78
2020/12/12 06:12:26;;;;;;;13.73;8.07;;;;;;;;;;5059336;28;20231;-77
2020/12/12 06:14:56;;;;;;;15.70;8.53;;;;;;;;;;5018034;28;20239;-77
2020/12/12 06:17:44;;;;;;;14.13;7.90;;;;;;;;;;5026988;28;20709;-77
2020/12/12 06:20:13;;;;;;;15.90;8.90;;;;;;;;;;5023008;28;20227;-78
2020/12/12 06:22:43;;;;;;;16.73;8.97;;;;;;;;;;5044413;28;20605;-77
2020/12/12 06:25:14;;;;;;;13.57;7.50;;;;;;;;;;5054938;28;20230;-77
2020/12/12 06:27:45;;;;;;;14.47;8.13;;;;;;;;;;5042626;28;20230;-79
2020/12/12 06:30:14;;;;;;;15.53;8.20;;;;;;;;;;5052188;28;20712;-78
2020/12/12 06:32:42;;;;;;;14.63;8.10;;;;;;;;;;5066290;28;20258;-78
2020/12/12 06:35:14;;;;;;;11.30;7.10;;;;;;;;;;5039498;28;20619;-78
2020/12/12 06:37:43;;;;;;;12.27;7.30;;;;;;;;;;5062817;28;20233;-78
2020/12/12 06:40:12;;;;;;;9.57;6.03;;;;;;;;;;5020339;28;20234;-78
2020/12/12 06:42:41;;;;;;;13.27;7.40;;;;;;;;;;5054164;28;20237;-78
2020/12/12 06:45:31;;;;;;;11.10;6.50;;;;;;;;;;5043759;28;20250;-78
2020/12/12 06:47:59;;;;;;;12.57;7.03;;;;;;;;;;5057179;28;20226;-78
2020/12/12 06:50:31;;;;;;;11.27;7.07;;;;;;;;;;5056462;28;20227;-78
2020/12/12 06:53:00;;;;;;;13.77;7.87;;;;;;;;;;5024846;28;20235;-78
2020/12/12 06:55:27;;;;;;;12.50;6.67;;;;;;;;;;5041423;28;20322;-78
2020/12/12 06:57:58;;;;;;;10.97;6.83;;;;;;;;;;5023382;28;20226;-78
2020/12/12 07:00:30;;;;;;;16.10;8.60;;;;;;;;;;5041169;28;20725;-78
2020/12/12 07:02:59;;;;;;;11.73;7.20;;;;;;;;;;5034874;28;20223;-79
2020/12/12 07:05:29;;;;;;;13.70;7.50;;;;;;;;;;5044098;28;20247;-79
2020/12/12 07:08:02;;;;;;;10.80;6.57;;;;;;;;;;5039284;28;20234;-78
2020/12/12 07:10:30;;;;;;;12.27;7.27;;;;;;;;;;5047092;28;20216;-78
2020/12/12 07:12:59;;;;;;;10.50;6.77;;;;;;;;;;5017831;28;20220;-78
2020/12/12 07:15:29;;;;;;;11.47;6.87;;;;;;;;;;5008506;28;20238;-78
2020/12/12 07:18:02;;;;;;;10.93;7.20;;;;;;;;;;5014352;28;20223;-78
2020/12/12 07:20:35;;;;;;;10.93;6.60;;;;;;;;;;5027210;28;20246;-78
2020/12/12 07:23:04;;;;;;;12.60;6.80;;;;;;;;;;5044047;28;21121;-79
2020/12/12 07:25:33;;;;;;;8.87;6.23;;;;;;;;;;5051381;28;20847;-78
2020/12/12 07:28:01;;;;;;;10.83;6.33;;;;;;;;;;5048993;28;20705;-78
2020/12/12 07:30:32;;;;;;;9.80;6.13;;;;;;;;;;5017452;28;20381;-78
2020/12/12 07:33:00;;;;;;;10.90;6.53;;;;;;;;;;5065083;28;20227;-78
2020/12/12 07:35:28;;;;;;;10.93;5.97;;;;;;;;;;5012968;28;20628;-78
2020/12/12 07:38:01;;;;;;;8.73;5.80;;;;;;;;;;5029231;28;20238;-78
2020/12/12 07:40:32;;;;;;;7.47;4.93;;;;;;;;;;5009279;28;20220;-78
2020/12/12 07:43:00;;;;;;;7.60;5.60;;;;;;;;;;5009689;28;20234;-78
2020/12/12 07:45:40;;;;;;;7.97;5.00;;;;;;;;;;5027145;28;20235;-78
2020/12/12 07:48:09;;;;;;;10.23;5.27;;;;;;;;;;5044361;28;20254;-78
2020/12/12 07:50:37;;;;;;;7.60;5.40;;;;;;;;;;5028932;28;20747;-78
2020/12/12 07:53:06;;;;;;;7.17;4.87;;;;;;;;;;5046791;28;20239;-79
2020/12/12 07:55:40;;;;;;;7.10;4.77;;;;;;;;;;5041868;28;20227;-78
2020/12/12 07:58:15;;;;;;;8.23;5.37;;;;;;;;;;5061032;28;20223;-78
2020/12/12 08:00:42;;;;;;;7.40;4.50;;;;;;;;;;5007858;28;20697;-78
2020/12/12 08:03:10;;;;;;;6.20;4.07;;;;;;;;;;5029395;28;20723;-78
2020/12/12 08:05:37;;;;;;;5.60;3.60;;;;;;;;;;5024346;28;20216;-78
2020/12/12 08:08:09;;;;;;;7.63;4.20;;;;;;;;;;5027495;28;20231;-78
2020/12/12 08:10:38;;;;;;;5.27;3.93;;;;;;;;;;5044737;28;20710;-78
2020/12/12 08:13:06;;;;;;;5.70;3.93;;;;;;;;;;5026461;28;20234;-78
2020/12/12 08:15:36;;;;;;;6.43;4.17;;;;;;;;;;5025275;28;20779;-78
2020/12/12 08:18:11;;;;;;;4.80;3.27;;;;;;;;;;5009356;28;20219;-79
2020/12/12 08:20:39;;;;;;;4.40;3.30;;;;;;;;;;5026203;28;20227;-78
2020/12/12 08:23:11;;;;;;;6.27;4.37;;;;;;;;;;5037777;28;20235;-78
2020/12/12 08:25:40;;;;;;;6.57;3.90;;;;;;;;;;5011687;28;20239;-78
2020/12/12 08:28:10;;;;;;;5.33;3.60;;;;;;;;;;5041019;28;20227;-78
2020/12/12 08:30:38;;;;;;;6.83;4.17;;;;;;;;;;5044225;28;20228;-78
2020/12/12 08:33:10;;;;;;;5.67;3.93;;;;;;;;;;5040615;28;20238;-78
2020/12/12 08:35:53;;;;;;;4.97;3.50;;;;;;;;;;5063803;28;20692;-77
2020/12/12 08:38:22;;;;;;;4.93;3.60;;;;;;;;;;5033025;28;20228;-78
2020/12/12 08:40:52;;;;;;;7.13;3.87;;;;;;;;;;5034333;28;20227;-78
2020/12/12 08:43:19;;;;;;;4.57;3.40;;;;;;;;;;5042734;28;20235;-78
2020/12/12 08:45:55;;;;;;;4.33;3.13;;;;;;;;;;5018314;28;20228;-78
2020/12/12 08:48:30;;;;;;;3.67;2.70;;;;;;;;;;5016983;28;20234;-78
2020/12/12 08:50:59;;;;;;;4.30;3.20;;;;;;;;;;5031013;28;20231;-77
2020/12/12 08:53:31;;;;;;;4.40;2.83;;;;;;;;;;5028376;28;20223;-78
2020/12/12 08:56:04;;;;;;;5.27;3.63;;;;;;;;;;5043446;28;20713;-78
2020/12/12 08:58:41;;;;;;;4.63;3.03;;;;;;;;;;5053293;28;20219;-78
2020/12/12 09:01:32;;;;;;;3.80;3.10;;;;;;;;;;5032610;28;20230;-78
2020/12/12 09:04:02;;;;;;;3.70;2.90;;;;;;;;;;5020973;28;20594;-78
2020/12/12 09:06:33;;;;;;;5.70;3.00;;;;;;;;;;5027543;28;20234;-78
2020/12/12 09:09:09;;;;;;;4.20;2.60;;;;;;;;;;5035205;28;20732;-79
2020/12/12 09:11:38;;;;;;;3.67;2.70;;;;;;;;;;5018661;28;20235;-78
2020/12/12 09:14:07;;;;;;;2.60;1.93;;;;;;;;;;5005004;28;20224;-78
2020/12/12 09:16:35;;;;;;;4.50;2.53;;;;;;;;;;5050160;28;20234;-77
2020/12/12 09:19:05;;;;;;;3.20;2.60;;;;;;;;;;5014942;28;20228;-79
2020/12/12 09:21:34;;;;;;;3.60;2.67;;;;;;;;;;5048847;28;20239;-78
2020/12/12 09:24:02;;;;;;;4.53;2.43;;;;;;;;;;5030560;28;20247;-78
2020/12/12 09:26:31;;;;;;;3.17;2.57;;;;;;;;;;5051078;28;20234;-77
2020/12/12 09:28:59;;;;;;;4.30;2.70;;;;;;;;;;5029883;28;20246;-78
2020/12/12 09:31:28;;;;;;;3.77;2.80;;;;;;;;;;5066107;28;20240;-80
2020/12/12 09:33:55;;;;;;;2.80;2.50;;;;;;;;;;5031482;28;20219;-79
2020/12/12 09:36:23;;;;;;;2.93;2.47;;;;;;;;;;5043947;28;20605;-78
2020/12/12 09:38:51;;;;;;;2.47;2.00;;;;;;;;;;5020265;28;20237;-78
2020/12/12 09:41:19;;;;;;;3.20;2.23;;;;;;;;;;5013477;28;20223;-76
2020/12/12 09:43:46;;;;;;;3.00;2.23;;;;;;;;;;5066429;28;20246;-78
2020/12/12 09:46:18;;;;;;;3.27;1.80;;;;;;;;;;5036958;28;20226;-79
2020/12/12 09:48:47;;;;;;;3.00;2.13;;;;;;;;;;5065036;28;20247;-78
2020/12/12 09:51:15;;;;;;;2.50;2.10;;;;;;;;;;5020259;28;20254;-78
2020/12/12 09:53:43;;;;;;;2.30;1.70;;;;;;;;;;5052851;28;20231;-80
2020/12/12 09:56:11;;;;;;;2.57;1.90;;;;;;;;;;5042417;28;20224;-78
2020/12/12 09:58:39;;;;;;;3.30;2.30;;;;;;;;;;5014888;28;20234;-78
2020/12/12 10:01:11;;;;;;;3.00;2.20;;;;;;;;;;5017637;28;20239;-80
2020/12/12 10:03:39;;;;;;;2.77;2.30;;;;;;;;;;5026566;28;20230;-77
2020/12/12 10:06:07;;;;;;;3.03;2.37;;;;;;;;;;5034087;28;20245;-76
2020/12/12 10:08:35;;;;;;;3.53;2.23;;;;;;;;;;5034200;28;20219;-78
2020/12/12 10:11:03;;;;;;;2.57;1.80;;;;;;;;;;5018352;28;20246;-79
2020/12/12 10:13:30;;;;;;;2.70;2.30;;;;;;;;;;5048316;28;20234;-78
2020/12/12 10:15:58;;;;;;;2.93;2.33;;;;;;;;;;5047991;28;20227;-79
2020/12/12 10:18:25;;;;;;;2.40;1.90;;;;;;;;;;5029882;28;20594;-78
2020/12/12 10:20:54;;;;;;;2.63;2.30;;;;;;;;;;5024820;28;20215;-78
2020/12/12 10:23:22;;;;;;;3.07;2.33;;;;;;;;;;5030077;28;20228;-78
2020/12/12 10:25:49;;;;;;;2.97;2.03;;;;;;;;;;5049280;28;20595;-78
2020/12/12 10:28:18;;;;;;;2.83;2.17;;;;;;;;;;5065225;28;20231;-79
2020/12/12 10:30:45;;;;;;;3.10;2.13;;;;;;;;;;5040476;28;20228;-78
2020/12/12 10:33:12;;;;;;;2.97;2.00;;;;;;;;;;5000403;28;20219;-81
2020/12/12 10:35:40;;;;;;;2.93;2.07;;;;;;;;;;5016095;28;20614;-79
2020/12/12 10:38:11;;;;;;;1.80;1.60;;;;;;;;;;5062974;28;20229;-79
2020/12/12 10:40:40;;;;;;;2.33;2.03;;;;;;;;;;5045430;28;20246;-79
2020/12/12 10:43:09;;;;;;;2.40;1.80;;;;;;;;;;5047428;28;20239;-83
2020/12/12 10:45:38;;;;;;;2.63;1.87;;;;;;;;;;5070179;28;20225;-80
2020/12/12 10:48:06;;;;;;;2.43;2.00;;;;;;;;;;5036923;28;20740;-79
2020/12/12 10:50:33;;;;;;;5.23;2.00;;;;;;;;;;5066990;28;20235;-78
2020/12/12 10:53:01;;;;;;;2.37;1.60;;;;;;;;;;5039912;28;20239;-78
2020/12/12 10:55:31;;;;;;;2.17;1.63;;;;;;;;;;5060656;28;20227;-78
2020/12/12 10:58:00;;;;;;;3.17;2.03;;;;;;;;;;5045529;28;20228;-78
2020/12/12 11:00:28;;;;;;;2.23;1.73;;;;;;;;;;5053836;28;20234;-78
2020/12/12 11:02:56;;;;;;;2.33;1.73;;;;;;;;;;5037201;28;20227;-78
2020/12/12 11:05:23;;;;;;;1.67;1.50;;;;;;;;;;5023759;28;20228;-80
2020/12/12 11:07:53;;;;;;;1.93;1.60;;;;;;;;;;5055763;28;20269;-78
2020/12/12 11:10:21;;;;;;;1.53;1.13;;;;;;;;;;5043967;28;20250;-78
2020/12/12 11:12:52;;;;;;;2.17;1.80;;;;;;;;;;5034687;28;22254;-78
2020/12/12 11:15:19;;;;;;;2.37;1.80;;;;;;;;;;5028522;28;20234;-82
2020/12/12 11:17:47;;;;;;;1.90;1.43;;;;;;;;;;5049244;28;20248;-78
2020/12/12 11:20:16;;;;;;;2.43;2.10;;;;;;;;;;5037232;28;20689;-78
2020/12/12 11:22:43;;;;;;;2.10;1.63;;;;;;;;;;5033021;28;20231;-78
2020/12/12 11:25:11;;;;;;;5.27;2.47;;;;;;;;;;5041634;28;20601;-78
2020/12/12 11:27:39;;;;;;;1.83;1.60;;;;;;;;;;5041553;28;20242;-78
2020/12/12 11:30:11;;;;;;;2.67;1.87;;;;;;;;;;5044256;28;20237;-78
2020/12/12 11:32:39;;;;;;;2.70;1.90;;;;;;;;;;5053389;28;20228;-78
2020/12/12 11:35:12;;;;;;;3.43;2.27;;;;;;;;;;5023709;28;20231;-78
2020/12/12 11:38:00;;;;;;;2.97;1.47;;;;;;;;;;5006671;28;20215;-78
2020/12/12 11:40:35;;;;;;;3.80;2.20;;;;;;;;;;5026704;28;20230;-78
2020/12/12 11:43:28;;;;;;;2.83;2.20;;;;;;;;;;5018455;28;20226;-78
2020/12/12 11:48:44;;;;;;;1.83;1.30;;;;;;;;;;5029581;28;20613;-78
2020/12/12 11:51:11;;;;;;;1.67;1.50;;;;;;;;;;5036827;28;20242;-78
2020/12/12 11:53:38;;;;;;;2.37;1.53;;;;;;;;;;5021910;28;20228;-80
2020/12/12 11:56:06;;;;;;;2.63;1.40;;;;;;;;;;5059315;28;20220;-78
2020/12/12 11:58:34;;;;;;;1.60;1.23;;;;;;;;;;5025927;28;20702;-78
2020/12/12 12:01:05;;;;;;;1.83;1.60;;;;;;;;;;5027445;28;20220;-78
2020/12/12 12:03:32;;;;;;;2.20;1.60;;;;;;;;;;5049533;28;20224;-78
2020/12/12 12:06:00;;;;;;;2.50;1.93;;;;;;;;;;5049212;28;20265;-78
2020/12/12 12:08:32;;;;;;;2.80;2.03;;;;;;;;;;5037078;28;20601;-78
2020/12/12 12:13:45;;;;;;;2.53;1.70;;;;;;;;;;5033894;28;20230;-79
2020/12/12 12:16:19;;;;;;;2.73;1.53;;;;;;;;;;5040975;28;20216;-78
2020/12/12 12:18:48;;;;;;;2.37;1.63;;;;;;;;;;5031071;28;20227;-78
2020/12/12 12:21:16;;;;;;;1.67;1.40;;;;;;;;;;5039377;28;20619;-78
2020/12/12 12:23:44;;;;;;;1.90;1.57;;;;;;;;;;5029590;28;20242;-78
2020/12/12 12:26:13;;;;;;;2.07;1.80;;;;;;;;;;5016837;28;20238;-80
2020/12/12 12:28:41;;;;;;;2.27;1.40;;;;;;;;;;5030461;28;20230;-78
2020/12/12 12:31:08;;;;;;;2.27;1.73;;;;;;;;;;5027480;28;20228;-80
2020/12/12 12:33:37;;;;;;;2.03;1.77;;;;;;;;;;5044679;28;20228;-80
2020/12/12 12:36:04;;;;;;;2.30;1.50;;;;;;;;;;4996347;28;20224;-80
2020/12/12 12:38:32;;;;;;;2.07;1.50;;;;;;;;;;5037969;28;20234;-78
2020/12/12 12:40:59;;;;;;;2.10;1.53;;;;;;;;;;5019182;28;20603;-79
2020/12/12 12:43:27;;;;;;;2.30;1.70;;;;;;;;;;5009192;28;20224;-78
2020/12/12 12:45:54;;;;;;;2.00;1.73;;;;;;;;;;5021085;28;20231;-78
2020/12/12 12:48:22;;;;;;;1.97;1.70;;;;;;;;;;5022737;28;20238;-82
2020/12/12 12:50:50;;;;;;;3.33;1.60;;;;;;;;;;5028149;28;20760;-78
2020/12/12 12:53:18;;;;;;;2.27;2.00;;;;;;;;;;5016636;28;20238;-79
2020/12/12 12:55:46;;;;;;;4.00;1.80;;;;;;;;;;5046622;28;20219;-79
2020/12/12 12:58:13;;;;;;;2.43;1.90;;;;;;;;;;5016130;28;20603;-78
2020/12/12 13:00:41;;;;;;;2.40;1.90;;;;;;;;;;5025574;28;20227;-78
2020/12/12 13:03:08;;;;;;;2.50;2.23;;;;;;;;;;5047670;28;20234;-79
2020/12/12 13:05:39;;;;;;;1.90;1.57;;;;;;;;;;5008902;28;20234;-79
2020/12/12 13:08:07;;;;;;;1.93;1.50;;;;;;;;;;5008167;28;20230;-78
2020/12/12 13:10:35;;;;;;;2.23;1.80;;;;;;;;;;5026700;28;20234;-78
2020/12/12 13:13:03;;;;;;;2.13;1.73;;;;;;;;;;5048229;28;20701;-79
2020/12/12 13:15:30;;;;;;;1.93;1.40;;;;;;;;;;5022191;28;20604;-78
2020/12/12 13:18:01;;;;;;;1.73;1.50;;;;;;;;;;5042294;28;20223;-78
2020/12/12 13:20:35;;;;;;;2.00;1.67;;;;;;;;;;5035557;28;20624;-80
2020/12/12 13:23:03;;;;;;;2.13;1.67;;;;;;;;;;5020740;28;20455;-78
2020/12/12 13:25:31;;;;;;;2.07;1.83;;;;;;;;;;5038157;28;20227;-78
2020/12/12 13:31:04;;;;;;;3.43;2.40;;;;;;;;;;5052087;28;20235;-78
2020/12/12 13:33:42;;;;;;;2.30;1.80;;;;;;;;;;5029636;28;20223;-79
2020/12/12 13:36:10;;;;;;;1.47;1.37;;;;;;;;;;5048168;28;20535;-79
2020/12/12 13:38:37;;;;;;;4.80;1.83;;;;;;;;;;5015117;28;20234;-79
2020/12/12 13:41:07;;;;;;;2.03;1.70;;;;;;;;;;5018356;28;20227;-79
2020/12/12 13:43:35;;;;;;;3.10;1.90;;;;;;;;;;5067269;28;20227;-78
2020/12/12 13:46:05;;;;;;;2.83;1.77;;;;;;;;;;5019519;28;20231;-78
2020/12/12 13:48:32;;;;;;;2.60;1.93;;;;;;;;;;5060435;28;20395;-79
2020/12/12 13:51:01;;;;;;;2.33;1.67;;;;;;;;;;5047831;28;20227;-78
2020/12/12 13:53:29;;;;;;;1.93;1.27;;;;;;;;;;5031599;28;20231;-77
2020/12/12 13:55:56;;;;;;;2.90;1.67;;;;;;;;;;5051949;28;20227;-77
2020/12/12 13:58:25;;;;;;;1.73;1.37;;;;;;;;;;5052242;28;20730;-78
2020/12/12 14:00:53;;;;;;;2.30;1.60;;;;;;;;;;5038447;28;20227;-78
2020/12/12 14:03:21;;;;;;;1.93;1.57;;;;;;;;;;5031373;28;20242;-77
2020/12/12 14:05:50;;;;;;;2.40;1.60;;;;;;;;;;5019919;28;20224;-78
2020/12/12 14:08:22;;;;;;;2.30;1.80;;;;;;;;;;5015321;28;20721;-78
2020/12/12 14:24:38;;;;;;;2.57;1.70;;;;;;;;;;5006895;28;20733;-79
2020/12/12 14:29:52;;;;;;;2.33;1.60;;;;;;;;;;5021607;28;20227;-77
2020/12/12 14:32:19;;;;;;;2.00;1.70;;;;;;;;;;5044134;28;20242;-77
2020/12/12 14:34:47;;;;;;;2.07;1.60;;;;;;;;;;5025321;28;20224;-78
2020/12/12 14:37:15;;;;;;;1.83;1.70;;;;;;;;;;5018065;28;20248;-78
2020/12/12 14:39:43;;;;;;;2.40;1.80;;;;;;;;;;5063253;28;20374;-78
2020/12/12 14:42:11;;;;;;;1.83;1.60;;;;;;;;;;5001232;28;20234;-78
2020/12/12 14:44:38;;;;;;;2.23;1.60;;;;;;;;;;5023951;28;20227;-78
2020/12/12 14:47:07;;;;;;;1.40;1.23;;;;;;;;;;5047309;28;20230;-78
2020/12/12 14:49:35;;;;;;;2.83;1.73;;;;;;;;;;5038395;28;20223;-78
2020/12/12 14:52:04;;;;;;;1.80;1.53;;;;;;;;;;5027627;28;20960;-77
2020/12/12 14:54:33;;;;;;;1.93;1.43;;;;;;;;;;5021365;28;20231;-78
2020/12/12 14:57:01;;;;;;;1.97;1.77;;;;;;;;;;5024079;28;20242;-78
2020/12/12 14:59:28;;;;;;;3.57;1.90;;;;;;;;;;5035364;28;20230;-79
2020/12/12 15:01:56;;;;;;;3.37;1.63;;;;;;;;;;5007739;28;20232;-78
2020/12/12 15:04:24;;;;;;;2.37;1.60;;;;;;;;;;5040661;28;20239;-78
2020/12/12 15:06:52;;;;;;;2.57;1.80;;;;;;;;;;5020955;28;20224;-78
2020/12/12 15:09:40;;;;;;;2.73;1.60;;;;;;;;;;5039451;28;20222;-78
2020/12/12 15:12:07;;;;;;;2.87;2.13;;;;;;;;;;5012615;28;20239;-79